Airfield :
LOGIN :

Register | Disclaimer

   EN    FR    IT 

 










Legend :    VFR   Marginal VFR   IFR   Intensive IFR   Very Intensive IFR
Visi :
Ceiling :
>= 8 km
>= 3000ft
5 to 8 km
1000 to 3000 ft
1500m to 5 km
500 to 1000 ft
800 to 1500m
200 to 500 ft
< 800m
< 200 ft
Symbols :   Thunderstorms  Fog  Heavy snow  Heavy precipitations  Wind > 20 kt
SIGMETs :     Misc.  Thunderstorms  Icing  Turbulence  Mountain Waves  Volcanic Ashes







- Airport Elevation : 7 ft
- IATA code : XHE
- Download approach charts


LFTH - Hyeres

CURRENT METAR :
  • 190900Z AUTO 33004KT 300V030 9999 SCT041/// BKN052/// ///TCU 11/04 Q1006 TEMPO SCT035

EXPIRED METARs :
  • 190830Z AUTO 31006KT CAVOK 09/04 Q1006 BECMG 05012KT
  • 190800Z AUTO 31007KT CAVOK 08/03 Q1006 BECMG 05012KT
  • 190730Z AUTO 31007KT CAVOK 07/03 Q1006 BECMG 05012KT
  • 190700Z AUTO 32006KT CAVOK 06/02 Q1006 BECMG 05012KT
  • 190630Z AUTO 32006KT CAVOK 06/02 Q1006 BECMG 05012KT

TAF TAF LFTH
Valid from the 19 at 09:00 until the 20 at 09:00 UTC


190800Z 1909/2009 05012KT CAVOK
TEMPO 1910/1913 SCT035
TEMPO 1913/1918 SCT030 SCT040
No reported NOTAMs for that airfield.
1 SIGMET reported for the Marseille FIR (LFMM) :
 
Embedded thunderstorms
LFMM SIGMET 5 VALID 190900/191100 LFPW
LFMM MARSEILLE FIR/UIR EMBD TS FCST S OF N3945 TOP FL360 STNR NC=



MET'MAP, your aeronautical weather chart ! - Copyright ORBIFLY December 2007 - Disclaimer

ORBIFLY MET'MAP TEAM :

Programming & Development : Alexandra Zaïnal
Concept & Development : Baudouin d'Aumeries
Co-Development & Prog : Marc-Olivier Méhu
Technical & hardware support : Manuel Goepfert

Contact : metmap@orbifly.com




SOURCES & CREDITS :

   NOAA